Time;durP1;ratioP1;P1;durP2;ratioP2;P2;SDS_P1;SDS_P2;PMS_P1;PMS_P2;Temp;Humidity;BMP_temperature;BMP_pressure;BME280_temperature;BME280_humidity;BME280_pressure;Samples;Min_cycle;Max_cycle;Signal;HPM_P1;HPM_P2
2021/07/13 00:00:17;;;;;;;1003.08;917.53;;;;;;;;;;5286447;27;20526;-85
2021/07/13 00:02:45;;;;;;;1024.13;936.80;;;;;;;;;;5288728;27;20084;-85
2021/07/13 00:05:16;;;;;;;989.55;905.10;;;;;;;;;;5288580;27;20009;-86
2021/07/13 00:07:45;;;;;;;897.50;828.58;;;;;;;;;;5287989;27;20015;-85
2021/07/13 00:10:15;;;;;;;947.25;864.55;;;;;;;;;;5287391;27;20109;-85
2021/07/13 00:12:44;;;;;;;1024.88;923.05;;;;;;;;;;5267995;27;20833;-84
2021/07/13 00:15:13;;;;;;;984.40;890.22;;;;;;;;;;5287859;27;20005;-85
2021/07/13 00:17:42;;;;;;;937.95;858.25;;;;;;;;;;5288524;27;20041;-85
2021/07/13 00:20:11;;;;;;;928.22;847.15;;;;;;;;;;5288228;27;20482;-85
2021/07/13 00:22:40;;;;;;;935.30;852.47;;;;;;;;;;5286557;27;20352;-84
2021/07/13 00:25:10;;;;;;;901.83;827.80;;;;;;;;;;5288427;27;20054;-85
2021/07/13 00:27:39;;;;;;;1141.47;937.47;;;;;;;;;;5286901;27;20474;-84
2021/07/13 00:30:09;;;;;;;1263.30;970.92;;;;;;;;;;5287665;27;20386;-83
2021/07/13 00:32:38;;;;;;;1406.13;986.40;;;;;;;;;;5288083;27;20495;-85
2021/07/13 00:35:07;;;;;;;1482.65;998.58;;;;;;;;;;5291285;27;20083;-84
2021/07/13 00:37:35;;;;;;;1029.15;923.58;;;;;;;;;;5288017;27;20026;-84
2021/07/13 00:40:05;;;;;;;1468.43;992.22;;;;;;;;;;5288991;27;20459;-84
2021/07/13 00:42:33;;;;;;;980.28;885.22;;;;;;;;;;5286981;27;20065;-85
2021/07/13 00:45:03;;;;;;;1364.95;986.85;;;;;;;;;;5291563;27;20406;-85
2021/07/13 00:47:32;;;;;;;985.08;893.55;;;;;;;;;;5291736;27;20769;-85
2021/07/13 00:50:00;;;;;;;1042.70;925.33;;;;;;;;;;5289757;27;20501;-85
2021/07/13 00:52:29;;;;;;;1180.63;962.25;;;;;;;;;;5287682;27;20080;-84
2021/07/13 00:54:59;;;;;;;1279.22;948.60;;;;;;;;;;5290799;27;20012;-84
2021/07/13 00:57:28;;;;;;;1214.18;940.62;;;;;;;;;;5290058;27;20032;-84
2021/07/13 00:59:56;;;;;;;1003.15;894.80;;;;;;;;;;5290088;27;20056;-85
2021/07/13 01:02:25;;;;;;;1094.97;918.80;;;;;;;;;;5267634;27;20022;-85
2021/07/13 01:05:00;;;;;;;1232.13;948.65;;;;;;;;;;5290060;27;20070;-86
2021/07/13 01:07:38;;;;;;;1152.32;924.03;;;;;;;;;;5291856;27;20083;-85
2021/07/13 01:10:12;;;;;;;1115.45;915.65;;;;;;;;;;5288664;27;20022;-84
2021/07/13 01:12:50;;;;;;;1194.82;917.70;;;;;;;;;;5288813;27;20464;-85
2021/07/13 01:15:20;;;;;;;1263.85;936.53;;;;;;;;;;5291167;27;20072;-84
2021/07/13 01:17:53;;;;;;;1361.22;955.58;;;;;;;;;;5270328;27;20356;-85
2021/07/13 01:20:36;;;;;;;1155.00;920.78;;;;;;;;;;5286361;27;20104;-85
2021/07/13 01:23:11;;;;;;;1211.53;931.60;;;;;;;;;;5287596;27;20071;-85
2021/07/13 01:25:42;;;;;;;1338.60;945.17;;;;;;;;;;5270452;27;20451;-85
2021/07/13 01:28:18;;;;;;;1094.38;925.00;;;;;;;;;;5289585;27;20507;-85
2021/07/13 01:30:49;;;;;;;999.30;890.10;;;;;;;;;;5288272;27;20266;-84
2021/07/13 01:33:20;;;;;;;1104.93;902.85;;;;;;;;;;5290455;27;20051;-86
2021/07/13 01:35:51;;;;;;;1341.07;946.25;;;;;;;;;;5267672;27;20021;-86
2021/07/13 01:38:22;;;;;;;1251.85;921.65;;;;;;;;;;5287422;27;20022;-84
2021/07/13 01:40:53;;;;;;;1476.15;961.37;;;;;;;;;;5289537;27;20031;-85
2021/07/13 01:43:23;;;;;;;1302.78;947.12;;;;;;;;;;5288710;27;20033;-85
2021/07/13 01:45:51;;;;;;;1445.88;958.33;;;;;;;;;;5265809;27;20454;-84
2021/07/13 01:48:21;;;;;;;1512.68;966.87;;;;;;;;;;5289714;27;20018;-86
2021/07/13 01:50:53;;;;;;;1505.05;956.78;;;;;;;;;;5289004;27;20484;-84
2021/07/13 01:53:23;;;;;;;1679.12;986.25;;;;;;;;;;5266675;27;20017;-85
2021/07/13 01:55:53;;;;;;;1514.22;980.15;;;;;;;;;;5286765;27;20085;-85
2021/07/13 01:58:22;;;;;;;1268.40;936.58;;;;;;;;;;5288866;27;20406;-84
2021/07/13 02:00:52;;;;;;;1658.82;985.30;;;;;;;;;;5288425;27;20768;-85
2021/07/13 02:03:28;;;;;;;1485.10;963.17;;;;;;;;;;5288273;27;20369;-85
2021/07/13 02:05:57;;;;;;;1733.55;999.10;;;;;;;;;;5289445;27;20013;-85
2021/07/13 02:08:26;;;;;;;1318.03;947.95;;;;;;;;;;5290324;27;20026;-85
2021/07/13 02:10:55;;;;;;;1593.75;984.95;;;;;;;;;;5289653;27;20029;-85
2021/07/13 02:13:23;;;;;;;1496.43;957.28;;;;;;;;;;5288288;27;20022;-84
2021/07/13 02:15:52;;;;;;;1734.25;997.17;;;;;;;;;;5287785;27;20093;-85
2021/07/13 02:18:20;;;;;;;1717.03;998.92;;;;;;;;;;5289746;27;20424;-85
2021/07/13 02:20:49;;;;;;;1488.28;967.40;;;;;;;;;;5288766;27;20093;-84
2021/07/13 02:23:17;;;;;;;1252.53;938.38;;;;;;;;;;5288425;27;20030;-85
2021/07/13 02:25:47;;;;;;;1653.57;989.30;;;;;;;;;;5290042;27;20028;-84
2021/07/13 02:28:36;;;;;;;1199.53;917.17;;;;;;;;;;5287965;27;20021;-85
2021/07/13 02:31:11;;;;;;;1511.03;961.63;;;;;;;;;;5286280;27;20445;-84
2021/07/13 02:34:02;;;;;;;1314.43;962.58;;;;;;;;;;5290952;27;20021;-84
2021/07/13 02:36:32;;;;;;;1475.63;985.60;;;;;;;;;;5268519;27;20603;-84
2021/07/13 02:39:01;;;;;;;1196.30;938.45;;;;;;;;;;5291407;27;20013;-84
2021/07/13 02:41:29;;;;;;;1229.22;932.30;;;;;;;;;;5287279;27;20025;-85
2021/07/13 02:43:58;;;;;;;1422.03;958.35;;;;;;;;;;5289120;27;20030;-84
2021/07/13 02:46:28;;;;;;;1119.72;900.80;;;;;;;;;;5289392;27;20021;-85
2021/07/13 02:48:58;;;;;;;1239.63;939.63;;;;;;;;;;5289400;27;20344;-85
2021/07/13 02:51:28;;;;;;;1125.45;929.83;;;;;;;;;;5285868;27;20450;-85
2021/07/13 02:53:57;;;;;;;1557.95;978.45;;;;;;;;;;5267859;27;20029;-86
2021/07/13 02:56:26;;;;;;;1239.22;937.12;;;;;;;;;;5289883;27;20432;-84
2021/07/13 02:58:56;;;;;;;1186.03;902.67;;;;;;;;;;5287566;27;20047;-85
2021/07/13 03:01:25;;;;;;;1075.70;921.45;;;;;;;;;;5285951;27;20522;-84
2021/07/13 03:03:53;;;;;;;1493.05;973.35;;;;;;;;;;5289215;27;20406;-84
2021/07/13 03:06:22;;;;;;;1147.65;925.22;;;;;;;;;;5271277;27;20029;-84
2021/07/13 03:08:51;;;;;;;1898.93;999.90;;;;;;;;;;5288984;27;20048;-84
2021/07/13 03:11:27;;;;;;;1428.95;955.50;;;;;;;;;;5291903;27;20158;-93
2021/07/13 03:14:33;;;;;;;1999.90;999.90;;;;;;;;;;5262443;27;20042;-92
2021/07/13 03:17:42;;;;;;;1836.82;999.90;;;;;;;;;;5245199;27;20418;-95
2021/07/13 03:20:50;;;;;;;1263.93;924.03;;;;;;;;;;5244080;27;20018;-94
2021/07/13 03:23:41;;;;;;;1999.90;999.90;;;;;;;;;;5245922;27;20013;-95
2021/07/13 03:26:23;;;;;;;1999.90;999.90;;;;;;;;;;5244373;27;20033;-94
2021/07/13 03:29:38;;;;;;;1999.90;999.90;;;;;;;;;;5248996;27;20346;-94
2021/07/13 03:32:38;;;;;;;1799.22;988.58;;;;;;;;;;5243956;27;20037;-93
2021/07/13 03:35:45;;;;;;;1711.72;984.62;;;;;;;;;;5244533;27;20028;-94
2021/07/13 03:38:48;;;;;;;1999.90;999.90;;;;;;;;;;5260911;27;20188;-94
2021/07/13 03:42:17;;;;;;;1437.88;931.53;;;;;;;;;;5244497;27;20038;-94
2021/07/13 03:44:53;;;;;;;1947.68;994.08;;;;;;;;;;5258492;27;20063;-93
2021/07/13 03:47:58;;;;;;;1586.57;958.22;;;;;;;;;;5259911;27;20047;-94
2021/07/13 03:54:31;;;;;;;1544.03;946.37;;;;;;;;;;5213955;27;20030;-94
2021/07/13 03:57:52;;;;;;;;;;;;;;;;;;;;;
2021/07/13 04:01:21;;;;;;;1976.00;998.65;;;;;;;;;;5257489;27;20030;-95
2021/07/13 04:04:50;;;;;;;1691.35;967.33;;;;;;;;;;5162317;27;20031;-94
2021/07/13 04:08:00;;;;;;;1999.90;999.90;;;;;;;;;;5263819;27;20023;-94
2021/07/13 04:10:49;;;;;;;1715.47;956.28;;;;;;;;;;5261173;27;20013;-94
2021/07/13 04:13:38;;;;;;;1360.97;903.65;;;;;;;;;;5261048;27;20042;-93
2021/07/13 04:16:30;;;;;;;1065.10;877.35;;;;;;;;;;5260355;27;20072;-93
2021/07/13 04:19:18;;;;;;;1999.90;999.90;;;;;;;;;;5243064;27;20442;-95
2021/07/13 04:22:19;;;;;;;1850.63;984.10;;;;;;;;;;5262777;27;20025;-93
2021/07/13 04:25:17;;;;;;;1547.72;915.65;;;;;;;;;;5244425;27;20068;-95
2021/07/13 04:28:03;;;;;;;1853.25;942.20;;;;;;;;;;5242236;27;20089;-94
2021/07/13 04:31:05;;;;;;;1707.38;933.90;;;;;;;;;;5243871;27;20055;-96
2021/07/13 04:33:47;;;;;;;1999.90;997.17;;;;;;;;;;5259633;27;20014;-93
2021/07/13 04:36:37;;;;;;;1613.55;920.22;;;;;;;;;;5242736;27;20350;-95
2021/07/13 04:39:14;;;;;;;1999.90;994.50;;;;;;;;;;5277243;27;20034;-94
2021/07/13 04:41:57;;;;;;;1823.15;962.65;;;;;;;;;;5258625;27;20029;-95
2021/07/13 04:44:34;;;;;;;1471.55;903.80;;;;;;;;;;5258370;27;20017;-93
2021/07/13 04:47:16;;;;;;;1749.57;943.45;;;;;;;;;;5279788;27;20069;-94
2021/07/13 04:49:48;;;;;;;1717.82;956.15;;;;;;;;;;5276563;27;20117;-94
2021/07/13 04:52:19;;;;;;;1724.20;969.80;;;;;;;;;;5257661;27;20025;-93
2021/07/13 04:54:51;;;;;;;1961.32;995.03;;;;;;;;;;5276201;27;20699;-93
2021/07/13 04:57:31;;;;;;;1223.15;869.70;;;;;;;;;;5275810;27;20069;-92
2021/07/13 05:00:09;;;;;;;1739.90;949.85;;;;;;;;;;5251358;27;20426;-95
2021/07/13 05:02:38;;;;;;;1999.90;999.67;;;;;;;;;;5238460;27;20774;-94
2021/07/13 05:05:14;;;;;;;1982.32;999.90;;;;;;;;;;5241794;27;20038;-94
2021/07/13 05:10:55;;;;;;;1999.38;999.90;;;;;;;;;;5274303;27;20060;-93
2021/07/13 05:14:03;;;;;;;1898.07;999.90;;;;;;;;;;5226430;27;20513;-93
2021/07/13 05:16:56;;;;;;;1617.32;972.30;;;;;;;;;;5242316;27;20104;-92
2021/07/13 05:19:49;;;;;;;1607.55;971.35;;;;;;;;;;5242448;27;20061;-94
2021/07/13 05:22:41;;;;;;;1857.75;995.72;;;;;;;;;;5258501;27;20036;-94
2021/07/13 05:25:29;;;;;;;1608.50;973.28;;;;;;;;;;5242336;27;20777;-93
2021/07/13 05:28:24;;;;;;;1334.97;933.65;;;;;;;;;;5243895;27;20026;-93
2021/07/13 05:31:29;;;;;;;1723.65;995.03;;;;;;;;;;5276879;27;20022;-94
2021/07/13 05:34:26;;;;;;;1879.35;999.20;;;;;;;;;;5262195;27;20037;-94
2021/07/13 05:38:06;;;;;;;1622.25;936.75;;;;;;;;;;5265668;27;20041;-95
2021/07/13 05:41:33;;;;;;;1419.55;909.92;;;;;;;;;;5225051;27;20414;-95
2021/07/13 05:44:47;;;;;;;1999.90;994.42;;;;;;;;;;5242656;27;20592;-96
2021/07/13 05:48:09;;;;;;;1824.45;947.03;;;;;;;;;;5235314;27;20032;-95
2021/07/13 05:51:45;;;;;;;853.67;728.35;;;;;;;;;;5207035;27;20038;-95
2021/07/13 05:56:22;;;;;;;774.97;700.22;;;;;;;;;;5178546;27;20039;-96
2021/07/13 10:38:20;;;;;;;1999.90;999.90;;;;;;;;;;5249872;27;20118;-84
2021/07/13 10:40:51;;;;;;;1999.90;999.90;;;;;;;;;;5286961;27;20404;-86
2021/07/13 10:43:20;;;;;;;1999.90;999.90;;;;;;;;;;5287916;27;20041;-86
2021/07/13 10:46:08;;;;;;;1999.90;999.90;;;;;;;;;;5266618;27;20367;-86
2021/07/13 10:48:38;;;;;;;1999.90;999.90;;;;;;;;;;5287345;27;20029;-85
2021/07/13 10:51:08;;;;;;;1999.90;999.90;;;;;;;;;;5285392;27;20531;-86
2021/07/13 10:53:39;;;;;;;1999.90;999.90;;;;;;;;;;5285295;27;20405;-86
2021/07/13 10:56:09;;;;;;;1999.90;999.90;;;;;;;;;;5286977;27;20053;-86
2021/07/13 10:58:38;;;;;;;1999.90;999.90;;;;;;;;;;5287265;27;20143;-86
2021/07/13 11:01:09;;;;;;;1999.90;999.90;;;;;;;;;;5286872;27;20033;-86
2021/07/13 11:03:37;;;;;;;1999.90;999.90;;;;;;;;;;5285837;27;20045;-86
2021/07/13 11:06:07;;;;;;;1999.90;999.90;;;;;;;;;;5285496;27;20056;-87
2021/07/13 11:08:44;;;;;;;1999.90;999.90;;;;;;;;;;5285536;27;20324;-86
2021/07/13 11:11:18;;;;;;;1999.90;999.90;;;;;;;;;;5285929;27;20017;-86
2021/07/13 11:13:57;;;;;;;1999.90;999.90;;;;;;;;;;5287286;27;20093;-86
2021/07/13 11:16:27;;;;;;;1999.90;999.90;;;;;;;;;;5285224;27;20021;-86
2021/07/13 11:18:57;;;;;;;1999.90;999.90;;;;;;;;;;5288527;27;20041;-86
2021/07/13 11:21:26;;;;;;;1999.90;999.90;;;;;;;;;;5288750;27;20510;-85
2021/07/13 11:23:56;;;;;;;1999.90;999.90;;;;;;;;;;5289637;27;20071;-86
2021/07/13 11:26:26;;;;;;;1999.90;999.90;;;;;;;;;;5288709;27;20466;-86
2021/07/13 11:28:55;;;;;;;1999.90;999.90;;;;;;;;;;5287938;27;20050;-86
2021/07/13 11:31:23;;;;;;;1999.90;999.90;;;;;;;;;;5291504;27;20032;-86
2021/07/13 11:33:52;;;;;;;1999.90;999.90;;;;;;;;;;5270639;27;20467;-86
2021/07/13 11:36:31;;;;;;;1999.90;999.90;;;;;;;;;;5288806;27;20031;-86
2021/07/13 11:39:02;;;;;;;1999.90;999.90;;;;;;;;;;5287396;27;20048;-86
2021/07/13 11:41:30;;;;;;;1999.90;999.90;;;;;;;;;;5269528;27;20054;-86
2021/07/13 11:44:01;;;;;;;1999.90;999.90;;;;;;;;;;5288306;27;20024;-86
2021/07/13 11:46:35;;;;;;;1999.90;999.90;;;;;;;;;;5289538;27;20110;-86
2021/07/13 11:49:11;;;;;;;1999.90;999.90;;;;;;;;;;5289001;27;20048;-86
2021/07/13 11:51:41;;;;;;;1999.90;999.90;;;;;;;;;;5289463;27;20355;-86
2021/07/13 11:54:11;;;;;;;1999.90;999.90;;;;;;;;;;5291318;27;20021;-86
2021/07/13 11:56:44;;;;;;;1999.90;999.90;;;;;;;;;;5288688;27;20013;-86
2021/07/13 11:59:15;;;;;;;1999.90;999.90;;;;;;;;;;5289956;27;20033;-86
2021/07/13 12:01:45;;;;;;;1999.90;999.90;;;;;;;;;;5290044;27;20044;-86
2021/07/13 12:04:14;;;;;;;1999.90;999.90;;;;;;;;;;5271964;27;20048;-85
2021/07/13 12:06:43;;;;;;;1999.90;999.90;;;;;;;;;;5287926;27;20037;-87
2021/07/13 12:09:12;;;;;;;1999.90;999.90;;;;;;;;;;5287229;27;20100;-85
2021/07/13 12:11:47;;;;;;;1999.90;999.90;;;;;;;;;;5268643;27;20494;-86
2021/07/13 12:14:19;;;;;;;1999.90;999.90;;;;;;;;;;5287862;27;20380;-86
2021/07/13 12:16:48;;;;;;;1999.90;999.90;;;;;;;;;;5287480;27;20029;-86
2021/07/13 12:19:19;;;;;;;1999.90;999.90;;;;;;;;;;5288220;27;20069;-86
2021/07/13 12:21:49;;;;;;;1999.90;999.90;;;;;;;;;;5288759;27;20335;-85
2021/07/13 12:24:24;;;;;;;1999.90;999.90;;;;;;;;;;5289558;27;20016;-86
2021/07/13 12:26:58;;;;;;;1999.90;999.90;;;;;;;;;;5288787;27;20049;-85
2021/07/13 12:29:37;;;;;;;1999.90;999.90;;;;;;;;;;5288218;27;20018;-86
2021/07/13 12:32:07;;;;;;;1999.90;999.90;;;;;;;;;;5287787;27;20076;-86
2021/07/13 12:34:52;;;;;;;1778.68;982.05;;;;;;;;;;5290040;27;20005;-86
2021/07/13 12:37:23;;;;;;;1999.90;999.90;;;;;;;;;;5291665;27;20035;-86
2021/07/13 12:40:01;;;;;;;1999.90;999.90;;;;;;;;;;5289579;27;20025;-86
2021/07/13 12:42:36;;;;;;;1999.90;999.90;;;;;;;;;;5290492;27;20321;-86
2021/07/13 12:45:13;;;;;;;1999.90;999.90;;;;;;;;;;5270819;27;20025;-85
2021/07/13 12:47:48;;;;;;;1999.90;999.90;;;;;;;;;;5289822;27;20363;-86
2021/07/13 12:50:26;;;;;;;1999.90;999.90;;;;;;;;;;5289293;27;20031;-85
2021/07/13 12:53:06;;;;;;;1999.90;999.90;;;;;;;;;;5292131;27;20059;-85
2021/07/13 12:55:39;;;;;;;;;;;;;;;;;;5289521;27;20023;-85
2021/07/13 12:58:13;;;;;;;1935.63;999.90;;;;;;;;;;5269381;27;19974;-86
2021/07/13 13:00:47;;;;;;;1999.90;999.90;;;;;;;;;;5290555;27;20009;-85
2021/07/13 13:03:21;;;;;;;1999.90;999.90;;;;;;;;;;5290625;27;20463;-86
2021/07/13 13:05:59;;;;;;;1999.90;999.90;;;;;;;;;;5291319;27;20044;-85
2021/07/13 13:08:37;;;;;;;1999.90;999.90;;;;;;;;;;5271995;27;20466;-85
2021/07/13 13:11:18;;;;;;;1488.83;884.87;;;;;;;;;;5289082;27;20043;-85
2021/07/13 13:14:04;;;;;;;1644.88;923.95;;;;;;;;;;5289535;27;20031;-86
2021/07/13 13:16:40;;;;;;;1811.53;959.90;;;;;;;;;;5289140;27;20005;-86
2021/07/13 13:19:11;;;;;;;1481.13;892.95;;;;;;;;;;5271869;27;20392;-86
2021/07/13 13:21:48;;;;;;;1670.28;929.30;;;;;;;;;;5289221;27;20098;-85
2021/07/13 13:24:17;;;;;;;1412.40;871.78;;;;;;;;;;5290327;27;20022;-86
2021/07/13 13:26:46;;;;;;;1414.47;871.55;;;;;;;;;;5289084;27;20097;-85
2021/07/13 13:29:16;;;;;;;1676.93;942.88;;;;;;;;;;5289682;27;20054;-86
2021/07/13 13:31:44;;;;;;;1379.13;870.45;;;;;;;;;;5270107;27;20026;-85
2021/07/13 13:34:19;;;;;;;1737.82;949.53;;;;;;;;;;5290316;27;20035;-86
2021/07/13 13:36:50;;;;;;;1759.03;953.92;;;;;;;;;;5288823;27;20030;-85
2021/07/13 13:39:19;;;;;;;1698.40;933.87;;;;;;;;;;5289857;27;20079;-86
2021/07/13 13:41:50;;;;;;;1836.25;953.53;;;;;;;;;;5291877;27;20089;-85
2021/07/13 13:44:25;;;;;;;1556.75;909.62;;;;;;;;;;5288734;27;20445;-84
2021/07/13 13:47:00;;;;;;;1669.45;934.85;;;;;;;;;;5270274;27;20048;-85
2021/07/13 13:49:28;;;;;;;1648.95;926.67;;;;;;;;;;5289544;27;20025;-85
2021/07/13 13:52:02;;;;;;;1347.15;849.25;;;;;;;;;;5288759;27;20031;-84
2021/07/13 13:54:36;;;;;;;;;;;;;;;;;;5290789;27;20798;-86
2021/07/13 13:57:05;;;;;;;1583.75;935.37;;;;;;;;;;5269226;27;19937;-84
2021/07/13 13:59:33;;;;;;;1742.68;925.00;;;;;;;;;;5291283;27;20050;-86
2021/07/13 14:02:08;;;;;;;1749.10;941.42;;;;;;;;;;5288959;27;20033;-84
2021/07/13 14:04:36;;;;;;;1511.47;869.72;;;;;;;;;;5291260;27;20085;-86
2021/07/13 14:07:05;;;;;;;1255.40;831.00;;;;;;;;;;5292096;27;20059;-84
2021/07/13 14:09:40;;;;;;;1161.18;814.38;;;;;;;;;;5289204;27;20063;-85
2021/07/13 14:12:28;;;;;;;1475.82;889.22;;;;;;;;;;5291132;27;20025;-85
2021/07/13 14:15:10;;;;;;;1404.10;865.17;;;;;;;;;;5289869;27;20028;-84
2021/07/13 14:17:40;;;;;;;1222.20;789.53;;;;;;;;;;5290113;27;20059;-85
2021/07/13 14:20:13;;;;;;;;;;;;;;;;;;5271028;27;20013;-85
2021/07/13 14:22:42;;;;;;;1213.63;826.92;;;;;;;;;;5289447;27;19937;-84
2021/07/13 14:25:11;;;;;;;1693.10;908.78;;;;;;;;;;5292370;27;20089;-85
2021/07/13 14:27:46;;;;;;;1053.25;793.60;;;;;;;;;;5291206;27;20108;-85
2021/07/13 14:30:15;;;;;;;1438.93;862.72;;;;;;;;;;5290876;27;20035;-85
2021/07/13 14:32:44;;;;;;;1577.80;890.90;;;;;;;;;;5290738;27;20037;-85
2021/07/13 14:35:18;;;;;;;1577.75;887.17;;;;;;;;;;5271457;27;20042;-86
2021/07/13 14:37:47;;;;;;;1752.38;909.70;;;;;;;;;;5292125;27;20321;-85
2021/07/13 14:40:15;;;;;;;1510.95;873.08;;;;;;;;;;5290285;27;20058;-85
2021/07/13 14:42:48;;;;;;;1361.45;850.95;;;;;;;;;;5272054;27;20547;-84
2021/07/13 14:45:23;;;;;;;1754.82;915.30;;;;;;;;;;5291541;27;20069;-84
2021/07/13 14:47:52;;;;;;;1673.97;878.95;;;;;;;;;;5291517;27;20034;-85
2021/07/13 14:50:25;;;;;;;1334.00;829.63;;;;;;;;;;5290116;27;20123;-85
2021/07/13 14:53:00;;;;;;;1551.15;866.72;;;;;;;;;;5290819;27;20068;-86
2021/07/13 14:55:29;;;;;;;1584.05;911.80;;;;;;;;;;5288614;27;20036;-85
2021/07/13 14:57:58;;;;;;;1585.15;906.60;;;;;;;;;;5290570;27;20047;-85
2021/07/13 15:00:26;;;;;;;906.95;750.47;;;;;;;;;;5292937;27;20049;-84
2021/07/13 15:03:00;;;;;;;1619.78;932.50;;;;;;;;;;5291357;27;20039;-86
2021/07/13 15:05:28;;;;;;;1411.30;888.80;;;;;;;;;;5270319;27;20035;-85
2021/07/13 15:08:00;;;;;;;1288.63;872.22;;;;;;;;;;5292240;27;20032;-85
2021/07/13 15:10:34;;;;;;;1689.18;952.22;;;;;;;;;;5289802;27;20015;-86
2021/07/13 15:13:05;;;;;;;1665.97;953.08;;;;;;;;;;5290268;27;20029;-85
2021/07/13 15:15:41;;;;;;;1093.97;832.72;;;;;;;;;;5289978;27;20043;-84
2021/07/13 15:18:14;;;;;;;1641.97;955.33;;;;;;;;;;5273869;27;20045;-85
2021/07/13 15:20:43;;;;;;;1425.68;882.17;;;;;;;;;;5290114;27;20021;-85
2021/07/13 15:23:12;;;;;;;1389.15;904.92;;;;;;;;;;5289452;27;20847;-84
2021/07/13 15:25:46;;;;;;;1673.55;954.97;;;;;;;;;;5269311;27;20458;-85
2021/07/13 15:28:14;;;;;;;1669.18;964.03;;;;;;;;;;5291348;27;20017;-85
2021/07/13 15:30:43;;;;;;;1415.18;872.87;;;;;;;;;;5291362;27;20539;-85
2021/07/13 15:33:16;;;;;;;1495.70;896.45;;;;;;;;;;5289315;27;20426;-85
2021/07/13 15:35:45;;;;;;;1792.25;968.62;;;;;;;;;;5288857;27;20204;-85
2021/07/13 15:38:15;;;;;;;1268.95;835.88;;;;;;;;;;5288748;27;20489;-85
2021/07/13 15:40:49;;;;;;;1693.18;928.28;;;;;;;;;;5288686;27;20022;-85
2021/07/13 15:43:18;;;;;;;1287.20;813.00;;;;;;;;;;5289421;27;20055;-85
2021/07/13 15:45:53;;;;;;;1687.72;929.80;;;;;;;;;;5288512;27;20017;-85
2021/07/13 15:48:26;;;;;;;1653.43;923.97;;;;;;;;;;5291049;27;20097;-85
2021/07/13 15:50:55;;;;;;;1458.28;867.17;;;;;;;;;;5289278;27;20016;-84
2021/07/13 15:53:31;;;;;;;1578.85;913.15;;;;;;;;;;5291130;27;20020;-86
2021/07/13 15:56:05;;;;;;;1910.32;990.55;;;;;;;;;;5288559;27;20064;-85
2021/07/13 15:58:39;;;;;;;1630.50;927.80;;;;;;;;;;5289217;27;20050;-85
2021/07/13 16:01:07;;;;;;;1590.00;922.35;;;;;;;;;;5269106;27;20116;-85
2021/07/13 16:03:37;;;;;;;1390.22;864.65;;;;;;;;;;5271091;27;20067;-85
2021/07/13 16:06:06;;;;;;;1665.07;943.08;;;;;;;;;;5288673;27;20349;-85
2021/07/13 16:08:39;;;;;;;;;;;;;;;;;;5271245;27;20030;-85
2021/07/13 16:11:08;;;;;;;1692.35;967.72;;;;;;;;;;5287413;27;19958;-85
2021/07/13 16:13:36;;;;;;;1826.85;991.25;;;;;;;;;;5267723;27;20504;-84
2021/07/13 16:16:16;;;;;;;1942.45;999.90;;;;;;;;;;5288086;27;20392;-85
2021/07/13 16:18:45;;;;;;;1483.50;907.47;;;;;;;;;;5288279;27;20037;-85
2021/07/13 16:21:18;;;;;;;1835.03;972.20;;;;;;;;;;5288791;27;20036;-85
2021/07/13 16:23:47;;;;;;;1518.93;929.30;;;;;;;;;;5288895;27;20044;-85
2021/07/13 16:26:15;;;;;;;1289.15;819.72;;;;;;;;;;5289512;27;20044;-85
2021/07/13 16:28:48;;;;;;;1440.73;901.33;;;;;;;;;;5289145;27;20246;-85
2021/07/13 16:31:19;;;;;;;1669.20;954.83;;;;;;;;;;5288562;27;20023;-85
2021/07/13 16:33:48;;;;;;;1857.38;992.92;;;;;;;;;;5270384;27;20071;-85
2021/07/13 16:36:22;;;;;;;1791.63;985.80;;;;;;;;;;5268759;27;20020;-86
2021/07/13 16:38:50;;;;;;;1539.50;926.83;;;;;;;;;;5289389;27;20028;-85
2021/07/13 16:41:18;;;;;;;1574.75;943.35;;;;;;;;;;5287005;27;20377;-84
2021/07/13 16:43:53;;;;;;;1603.18;937.15;;;;;;;;;;5288999;27;20070;-84
2021/07/13 16:46:27;;;;;;;;;;;;;;;;;;5290706;27;20017;-85
2021/07/13 16:48:55;;;;;;;1619.82;971.37;;;;;;;;;;5269423;27;20337;-85
2021/07/13 16:51:29;;;;;;;1659.53;987.20;;;;;;;;;;5288932;27;20014;-85
2021/07/13 16:54:04;;;;;;;1641.93;985.65;;;;;;;;;;5291227;27;20028;-85
2021/07/13 16:56:38;;;;;;;1856.55;959.33;;;;;;;;;;5288383;27;20017;-85
2021/07/13 16:59:07;;;;;;;1999.90;993.90;;;;;;;;;;5289619;27;20085;-85
2021/07/13 17:01:37;;;;;;;1266.88;794.15;;;;;;;;;;5289466;27;20056;-85
2021/07/13 17:04:10;;;;;;;1848.82;958.30;;;;;;;;;;5290606;27;20554;-84
2021/07/13 17:06:39;;;;;;;1646.90;974.38;;;;;;;;;;5288980;27;20022;-85
2021/07/13 17:09:07;;;;;;;1447.75;961.67;;;;;;;;;;5292790;27;20021;-84
2021/07/13 17:11:41;;;;;;;1090.00;898.00;;;;;;;;;;5290339;27;20013;-84
2021/07/13 17:14:10;;;;;;;1293.88;944.72;;;;;;;;;;5289241;27;20870;-84
2021/07/13 17:16:45;;;;;;;1476.70;958.72;;;;;;;;;;5287838;27;20028;-85
2021/07/13 17:19:19;;;;;;;1310.43;927.53;;;;;;;;;;5287764;27;20051;-86
2021/07/13 17:21:47;;;;;;;1744.40;999.90;;;;;;;;;;5290963;27;20025;-85
2021/07/13 17:24:16;;;;;;;1598.38;934.60;;;;;;;;;;5270737;27;20048;-86
2021/07/13 17:26:50;;;;;;;1811.05;999.90;;;;;;;;;;5288659;27;20017;-85
2021/07/13 17:29:19;;;;;;;1207.78;866.50;;;;;;;;;;5290158;27;20074;-85
2021/07/13 17:31:47;;;;;;;1737.95;967.28;;;;;;;;;;5289311;27;20344;-86
2021/07/13 17:34:21;;;;;;;1966.80;993.62;;;;;;;;;;5290679;27;20013;-85
2021/07/13 17:36:49;;;;;;;1422.47;890.62;;;;;;;;;;5289530;27;20035;-85
2021/07/13 17:39:36;;;;;;;1027.90;830.03;;;;;;;;;;5290271;27;20052;-85
2021/07/13 17:42:09;;;;;;;1036.28;798.22;;;;;;;;;;5289328;27;20025;-84
2021/07/13 17:44:38;;;;;;;1690.22;981.25;;;;;;;;;;5289673;27;20033;-85
2021/07/13 17:47:14;;;;;;;1269.20;887.78;;;;;;;;;;5290879;27;20017;-83
2021/07/13 17:49:47;;;;;;;960.65;787.80;;;;;;;;;;5291489;27;20014;-84
2021/07/13 17:52:16;;;;;;;880.17;760.25;;;;;;;;;;5291111;27;20063;-84
2021/07/13 17:54:50;;;;;;;1134.60;812.17;;;;;;;;;;5291312;27;20941;-84
2021/07/13 17:57:24;;;;;;;1558.95;919.67;;;;;;;;;;5290734;27;20025;-85
2021/07/13 17:59:53;;;;;;;1355.45;881.75;;;;;;;;;;5289789;27;20750;-84
2021/07/13 18:02:21;;;;;;;1646.70;950.10;;;;;;;;;;5289236;27;20055;-85
2021/07/13 18:04:54;;;;;;;1499.22;913.90;;;;;;;;;;5287697;27;20016;-86
2021/07/13 18:07:23;;;;;;;1660.07;936.85;;;;;;;;;;5288964;27;20415;-85
2021/07/13 18:09:51;;;;;;;1742.88;944.15;;;;;;;;;;5289806;27;20061;-85
2021/07/13 18:12:27;;;;;;;1755.82;952.33;;;;;;;;;;5288744;27;20025;-85
2021/07/13 18:14:55;;;;;;;1513.65;891.65;;;;;;;;;;5287717;27;20734;-85
2021/07/13 18:17:30;;;;;;;1353.45;880.42;;;;;;;;;;5288675;27;20060;-85
2021/07/13 18:20:04;;;;;;;1879.60;992.60;;;;;;;;;;5290779;27;20088;-84
2021/07/13 18:22:33;;;;;;;1028.90;820.47;;;;;;;;;;5289587;27;20013;-85
2021/07/13 18:25:01;;;;;;;1632.35;933.25;;;;;;;;;;5290813;27;20121;-84
2021/07/13 18:27:36;;;;;;;1960.70;997.63;;;;;;;;;;5291037;27;20031;-85
2021/07/13 18:30:06;;;;;;;1578.18;924.22;;;;;;;;;;5290547;27;20259;-84
2021/07/13 18:32:35;;;;;;;1640.38;931.12;;;;;;;;;;5291363;27;20367;-85
2021/07/13 18:35:09;;;;;;;1910.83;975.03;;;;;;;;;;5289649;27;20013;-84
2021/07/13 18:37:38;;;;;;;1999.90;999.90;;;;;;;;;;5290195;27;20034;-85
2021/07/13 18:40:07;;;;;;;1456.20;917.58;;;;;;;;;;5291411;27;20270;-84
2021/07/13 18:42:40;;;;;;;;;;;;;;;;;;5289808;27;20043;-84
2021/07/13 18:45:09;;;;;;;1999.90;999.90;;;;;;;;;;5291319;27;19950;-85
2021/07/13 18:47:43;;;;;;;1855.90;999.90;;;;;;;;;;5292112;27;20029;-84
2021/07/13 18:50:16;;;;;;;1555.15;982.92;;;;;;;;;;5292064;27;20486;-85
2021/07/13 18:52:45;;;;;;;1645.15;984.25;;;;;;;;;;5269550;27;20439;-84
2021/07/13 18:55:20;;;;;;;1626.03;996.58;;;;;;;;;;5290931;27;20644;-85
2021/07/13 18:57:53;;;;;;;1953.20;999.90;;;;;;;;;;5290241;27;20033;-84
2021/07/13 19:00:22;;;;;;;1970.43;998.92;;;;;;;;;;5288368;27;20758;-85
2021/07/13 19:02:50;;;;;;;1999.90;999.90;;;;;;;;;;5291723;27;20411;-85
2021/07/13 19:05:25;;;;;;;1999.90;999.90;;;;;;;;;;5269430;27;20084;-84
2021/07/13 19:07:53;;;;;;;1999.90;999.90;;;;;;;;;;5289533;27;20017;-84
2021/07/13 19:10:21;;;;;;;1999.90;999.90;;;;;;;;;;5289842;27;20017;-85
2021/07/13 19:13:03;;;;;;;1999.90;999.90;;;;;;;;;;5269467;27;20021;-84
2021/07/13 19:15:32;;;;;;;1999.90;999.90;;;;;;;;;;5289684;27;20017;-85
2021/07/13 19:18:13;;;;;;;1999.90;999.90;;;;;;;;;;5290885;27;20006;-84